createdAt,value
2018-12-25T00:01:01.539Z,8.67
2018-12-25T00:03:29.983Z,10.63
2018-12-25T00:05:58.395Z,11.30
2018-12-25T00:08:26.844Z,9.80
2018-12-25T00:10:55.276Z,14.30
2018-12-25T00:13:23.719Z,14.50
2018-12-25T00:15:52.164Z,9.63
2018-12-25T00:18:20.602Z,10.17
2018-12-25T00:20:49.073Z,9.07
2018-12-25T00:23:17.520Z,10.50
2018-12-25T00:25:45.945Z,10.40
2018-12-25T00:28:14.382Z,9.93
2018-12-25T00:30:42.810Z,11.00
2018-12-25T00:33:11.264Z,15.17
2018-12-25T00:35:39.695Z,10.60
2018-12-25T00:38:08.151Z,16.23
2018-12-25T00:40:36.573Z,18.07
2018-12-25T00:43:04.997Z,8.57
2018-12-25T00:45:33.445Z,12.73
2018-12-25T00:48:01.864Z,18.20
2018-12-25T00:50:30.308Z,13.93
2018-12-25T00:52:58.723Z,13.47
2018-12-25T00:55:27.167Z,14.20
2018-12-25T00:57:55.620Z,9.97
2018-12-25T01:00:24.128Z,11.93
2018-12-25T01:02:52.571Z,10.40
2018-12-25T01:05:20.986Z,7.73
2018-12-25T01:07:49.445Z,13.00
2018-12-25T01:10:17.892Z,11.77
2018-12-25T01:12:46.421Z,9.17
2018-12-25T01:15:14.943Z,10.03
2018-12-25T01:17:43.383Z,7.77
2018-12-25T01:20:11.882Z,14.33
2018-12-25T01:22:40.300Z,9.17
2018-12-25T01:25:08.724Z,11.47
2018-12-25T01:27:37.293Z,15.83
2018-12-25T01:30:06.079Z,12.23
2018-12-25T01:32:34.524Z,7.70
2018-12-25T01:35:02.953Z,10.73
2018-12-25T01:37:31.394Z,10.60
2018-12-25T01:39:59.835Z,12.90
2018-12-25T01:42:28.247Z,11.17
2018-12-25T01:44:56.699Z,6.63
2018-12-25T01:47:25.153Z,7.50
2018-12-25T01:49:53.577Z,9.30
2018-12-25T01:52:22.021Z,10.73
2018-12-25T01:54:50.464Z,11.00
2018-12-25T01:57:18.899Z,10.90
2018-12-25T01:59:47.312Z,11.70
2018-12-25T02:02:15.753Z,11.50
2018-12-25T02:04:44.195Z,8.33
2018-12-25T02:07:12.611Z,10.77
2018-12-25T02:09:41.151Z,10.57
2018-12-25T02:12:09.564Z,8.83
2018-12-25T02:14:37.983Z,11.70
2018-12-25T02:17:06.426Z,9.97
2018-12-25T02:19:40.173Z,10.40
2018-12-25T02:22:05.020Z,9.93
2018-12-25T02:24:33.505Z,11.67
2018-12-25T02:27:01.940Z,11.53
2018-12-25T02:29:30.388Z,9.27
2018-12-25T02:31:58.801Z,8.23
2018-12-25T02:34:27.249Z,9.97
2018-12-25T02:36:55.655Z,8.07
2018-12-25T02:39:24.099Z,11.33
2018-12-25T02:41:52.519Z,11.00
2018-12-25T02:44:21.027Z,13.00
2018-12-25T02:46:49.435Z,7.67
2018-12-25T02:49:18.429Z,9.37
2018-12-25T02:51:46.956Z,9.83
2018-12-25T02:54:15.405Z,12.90
2018-12-25T02:56:43.830Z,9.90
2018-12-25T02:59:12.344Z,19.13
2018-12-25T03:01:40.750Z,11.57
2018-12-25T03:04:28.545Z,8.13
2018-12-25T03:06:57.026Z,16.03
2018-12-25T03:09:25.476Z,9.63
2018-12-25T03:11:53.975Z,8.30
2018-12-25T03:14:22.904Z,5.60
2018-12-25T03:16:51.714Z,9.23
2018-12-25T03:19:20.669Z,7.07
2018-12-25T03:21:49.194Z,10.53
2018-12-25T03:24:17.674Z,7.33
2018-12-25T03:26:46.121Z,10.67
2018-12-25T03:29:14.567Z,5.03
2018-12-25T03:31:43.019Z,9.07
2018-12-25T03:34:11.543Z,5.13
2018-12-25T03:36:39.963Z,11.27
2018-12-25T03:39:08.411Z,8.23
2018-12-25T03:41:36.901Z,9.33
2018-12-25T03:44:05.354Z,5.60
2018-12-25T03:46:33.772Z,7.93
2018-12-25T03:49:02.221Z,5.87
2018-12-25T03:51:30.642Z,6.90
2018-12-25T03:53:59.084Z,7.90
2018-12-25T03:56:27.500Z,9.57
2018-12-25T03:58:55.930Z,8.63
2018-12-25T04:01:24.365Z,10.13
2018-12-25T04:03:52.888Z,5.33
2018-12-25T04:06:21.309Z,11.70
2018-12-25T04:08:49.823Z,7.03
2018-12-25T04:11:18.232Z,9.37
2018-12-25T04:13:46.695Z,10.80
2018-12-25T04:16:15.137Z,10.80
2018-12-25T04:18:43.619Z,11.07
2018-12-25T04:21:12.068Z,13.60
2018-12-25T04:23:40.482Z,9.00
2018-12-25T04:26:08.947Z,12.57
2018-12-25T04:28:37.366Z,10.60
2018-12-25T04:31:25.139Z,9.90
2018-12-25T04:33:53.549Z,9.50
2018-12-25T04:36:21.987Z,9.63
2018-12-25T04:38:50.445Z,8.80
2018-12-25T04:41:18.875Z,8.70
2018-12-25T04:43:47.355Z,9.83
2018-12-25T04:46:15.809Z,11.70
2018-12-25T04:48:44.226Z,12.60
2018-12-25T04:51:12.707Z,8.87
2018-12-25T04:53:41.197Z,8.77
2018-12-25T04:56:09.603Z,8.30
2018-12-25T04:58:38.062Z,13.53
2018-12-25T05:01:06.483Z,12.00
2018-12-25T05:03:34.924Z,9.53
2018-12-25T05:06:03.402Z,9.87
2018-12-25T05:08:31.846Z,12.50
2018-12-25T05:11:00.269Z,11.60
2018-12-25T05:13:28.716Z,10.47
2018-12-25T05:18:45.914Z,13.50
2018-12-25T05:21:14.360Z,8.13
2018-12-25T05:23:42.778Z,11.10
2018-12-25T05:26:11.220Z,7.90
2018-12-25T05:28:39.660Z,10.90
2018-12-25T05:31:08.066Z,13.23
2018-12-25T05:33:36.511Z,14.83
2018-12-25T05:36:06.884Z,17.10
2018-12-25T05:38:35.348Z,14.63
2018-12-25T05:41:16.248Z,13.83
2018-12-25T05:43:44.715Z,12.43
2018-12-25T05:46:13.157Z,10.27
2018-12-25T05:48:41.612Z,11.17
2018-12-25T05:51:10.024Z,10.40
2018-12-25T05:53:38.444Z,9.37
2018-12-25T05:56:06.879Z,15.80
2018-12-25T05:58:35.286Z,8.73
2018-12-25T06:01:03.730Z,18.90
2018-12-25T06:03:32.154Z,14.23
2018-12-25T06:06:00.587Z,12.40
2018-12-25T06:08:29.019Z,18.23
2018-12-25T06:10:57.483Z,15.00
2018-12-25T06:13:25.918Z,17.17
2018-12-25T06:15:54.336Z,9.20
2018-12-25T06:18:22.755Z,10.10
2018-12-25T06:20:55.121Z,19.30
2018-12-25T06:23:21.375Z,9.70
2018-12-25T06:25:49.819Z,11.13
2018-12-25T06:28:18.230Z,11.83
2018-12-25T06:30:46.681Z,14.47
2018-12-25T06:33:15.119Z,13.17
2018-12-25T06:35:43.598Z,13.93
2018-12-25T06:38:12.019Z,17.80
2018-12-25T06:40:40.443Z,13.67
2018-12-25T06:43:08.888Z,15.00
2018-12-25T06:45:37.509Z,11.70
2018-12-25T06:48:06.006Z,12.30
2018-12-25T06:50:34.423Z,25.13
2018-12-25T06:53:02.859Z,10.93
2018-12-25T06:55:31.436Z,11.13
2018-12-25T06:57:59.862Z,9.83
2018-12-25T07:00:28.303Z,13.63
2018-12-25T07:02:56.734Z,15.50
2018-12-25T07:05:25.256Z,10.03
2018-12-25T07:07:53.672Z,10.13
2018-12-25T07:10:22.107Z,13.93
2018-12-25T07:12:50.556Z,10.40
2018-12-25T07:15:18.977Z,10.33
2018-12-25T07:17:47.487Z,12.50
2018-12-25T07:20:15.995Z,11.13
2018-12-25T07:22:44.435Z,6.67
2018-12-25T07:25:12.859Z,10.00
2018-12-25T07:27:41.308Z,10.67
2018-12-25T07:30:09.731Z,11.57
2018-12-25T07:32:38.167Z,14.40
2018-12-25T07:35:06.613Z,11.63
2018-12-25T07:37:35.034Z,10.20
2018-12-25T07:40:04.329Z,12.70
2018-12-25T07:42:32.747Z,7.23
2018-12-25T07:45:20.520Z,12.23
2018-12-25T07:47:48.934Z,7.23
2018-12-25T07:50:17.348Z,12.30
2018-12-25T07:55:41.311Z,9.17
2018-12-25T07:58:09.766Z,15.90
2018-12-25T08:00:38.217Z,9.13
2018-12-25T08:03:06.627Z,8.83
2018-12-25T08:05:35.066Z,8.17
2018-12-25T08:08:03.520Z,7.90
2018-12-25T08:10:31.980Z,8.73
2018-12-25T08:13:00.395Z,6.90
2018-12-25T08:15:28.947Z,7.50
2018-12-25T08:17:57.415Z,10.27
2018-12-25T08:20:25.837Z,11.10
2018-12-25T08:23:02.357Z,7.43
2018-12-25T08:25:24.554Z,10.57
2018-12-25T08:27:52.995Z,11.40
2018-12-25T08:30:21.425Z,10.30
2018-12-25T08:32:49.888Z,8.40
2018-12-25T08:35:50.654Z,14.43
2018-12-25T08:38:19.096Z,9.87
2018-12-25T08:40:47.519Z,18.67
2018-12-25T08:43:15.934Z,12.90
2018-12-25T08:45:44.390Z,9.57
2018-12-25T08:48:12.814Z,11.70
2018-12-25T08:50:41.257Z,15.20
2018-12-25T08:53:09.695Z,9.57
2018-12-25T08:55:38.149Z,7.00
2018-12-25T08:58:06.576Z,14.83
2018-12-25T09:00:35.030Z,15.13
2018-12-25T09:03:03.451Z,15.20
2018-12-25T09:05:31.967Z,16.03
2018-12-25T09:08:00.442Z,11.40
2018-12-25T09:10:28.875Z,12.57
2018-12-25T09:12:57.319Z,6.53
2018-12-25T09:15:25.735Z,21.90
2018-12-25T09:17:54.179Z,13.23
2018-12-25T09:20:22.599Z,16.73
2018-12-25T09:22:51.051Z,17.27
2018-12-25T09:25:19.465Z,11.90
2018-12-25T09:27:47.907Z,10.60
2018-12-25T09:30:16.325Z,14.20
2018-12-25T09:32:44.763Z,16.13
2018-12-25T09:35:13.219Z,12.40
2018-12-25T09:37:41.714Z,13.50
2018-12-25T09:40:10.161Z,13.80
2018-12-25T09:42:38.590Z,18.27
2018-12-25T09:45:07.086Z,18.20
2018-12-25T09:47:35.547Z,12.27
2018-12-25T09:50:04.116Z,14.60
2018-12-25T09:52:32.543Z,13.97
2018-12-25T09:55:20.331Z,16.40
2018-12-25T09:57:48.743Z,16.20
2018-12-25T10:00:17.213Z,14.50
2018-12-25T10:03:05.048Z,21.47
2018-12-25T10:05:33.503Z,9.30
2018-12-25T10:08:21.255Z,17.03
2018-12-25T10:10:49.852Z,14.53
2018-12-25T10:13:18.430Z,14.43
2018-12-25T10:15:46.854Z,16.73
2018-12-25T10:18:15.304Z,10.97
2018-12-25T10:20:43.782Z,22.73
2018-12-25T10:23:12.235Z,21.07
2018-12-25T10:25:40.649Z,9.40
2018-12-25T10:28:09.158Z,18.50
2018-12-25T10:30:37.577Z,15.10
2018-12-25T10:33:06.016Z,10.43
2018-12-25T10:35:34.511Z,16.67
2018-12-25T10:38:02.951Z,15.80
2018-12-25T10:40:31.375Z,16.97
2018-12-25T10:42:59.835Z,13.77
2018-12-25T10:45:28.249Z,14.73
2018-12-25T10:47:56.675Z,11.23
2018-12-25T10:50:25.118Z,15.30
2018-12-25T10:52:53.567Z,14.43
2018-12-25T10:58:17.120Z,11.30
2018-12-25T11:00:46.200Z,9.67
2018-12-25T11:03:14.626Z,9.40
2018-12-25T11:05:43.067Z,22.10
2018-12-25T11:08:13.101Z,11.47
2018-12-25T11:11:00.864Z,19.90
2018-12-25T11:13:29.303Z,15.10
2018-12-25T11:15:57.734Z,19.30
2018-12-25T11:18:26.176Z,9.50
2018-12-25T11:20:54.587Z,14.40
2018-12-25T11:26:17.732Z,22.77
2018-12-25T11:28:46.144Z,18.23
2018-12-25T11:31:14.586Z,14.40
2018-12-25T11:33:43.006Z,17.67
2018-12-25T11:36:30.787Z,13.70
2018-12-25T11:38:59.207Z,16.23
2018-12-25T11:41:27.660Z,16.40
2018-12-25T11:43:56.104Z,20.70
2018-12-25T11:46:43.957Z,11.00
2018-12-25T11:49:31.721Z,19.40
2018-12-25T11:52:00.176Z,17.30
2018-12-25T11:54:28.680Z,17.43
2018-12-25T11:56:57.100Z,16.37
2018-12-25T12:02:20.968Z,24.17
2018-12-25T12:04:49.397Z,22.70
2018-12-25T12:07:17.831Z,15.77
2018-12-25T12:09:46.257Z,20.00
2018-12-25T12:12:14.712Z,16.70
2018-12-25T12:14:43.412Z,18.20
2018-12-25T12:17:11.863Z,17.33
2018-12-25T12:19:40.317Z,17.80
2018-12-25T12:22:08.835Z,24.93
2018-12-25T12:24:37.282Z,16.97
2018-12-25T12:27:05.714Z,20.13
2018-12-25T12:29:53.488Z,20.50
2018-12-25T12:32:21.911Z,19.70
2018-12-25T12:34:50.365Z,21.30
2018-12-25T12:37:18.794Z,22.07
2018-12-25T12:39:47.244Z,15.23
2018-12-25T12:42:15.674Z,22.30
2018-12-25T12:44:44.091Z,18.83
2018-12-25T12:47:12.544Z,25.27
2018-12-25T12:50:00.346Z,25.73
2018-12-25T12:52:28.771Z,31.00
2018-12-25T12:54:57.191Z,34.43
2018-12-25T12:57:25.711Z,22.17
2018-12-25T12:59:54.164Z,26.10
2018-12-25T13:02:22.627Z,20.93
2018-12-25T13:04:51.145Z,27.20
2018-12-25T13:07:19.591Z,24.57
2018-12-25T13:09:48.025Z,11.93
2018-12-25T13:12:16.457Z,25.23
2018-12-25T13:14:44.944Z,23.90
2018-12-25T13:17:13.377Z,22.97
2018-12-25T13:20:01.158Z,28.60
2018-12-25T13:22:29.584Z,29.87
2018-12-25T13:24:58.047Z,22.50
2018-12-25T13:27:26.738Z,11.23
2018-12-25T13:29:55.186Z,21.23
2018-12-25T13:32:23.634Z,22.10
2018-12-25T13:34:52.077Z,24.43
2018-12-25T13:37:22.490Z,24.07
2018-12-25T13:39:50.984Z,35.00
2018-12-25T13:42:19.405Z,29.60
2018-12-25T13:44:47.863Z,24.20
2018-12-25T13:47:16.317Z,18.83
2018-12-25T13:49:44.744Z,30.90
2018-12-25T13:52:13.179Z,14.70
2018-12-25T13:54:41.626Z,22.20
2018-12-25T13:57:10.056Z,19.63
2018-12-25T13:59:38.496Z,16.57
2018-12-25T14:02:06.940Z,22.90
2018-12-25T14:04:35.365Z,17.63
2018-12-25T14:07:03.877Z,22.87
2018-12-25T14:09:32.316Z,28.17
2018-12-25T14:12:20.119Z,27.23
2018-12-25T14:14:48.526Z,22.00
2018-12-25T14:17:16.957Z,19.60
2018-12-25T14:19:45.387Z,18.90
2018-12-25T14:22:13.816Z,14.07
2018-12-25T14:24:42.266Z,23.87
2018-12-25T14:27:10.676Z,15.97
2018-12-25T14:29:39.096Z,21.17
2018-12-25T14:32:07.554Z,22.20
2018-12-25T14:34:55.372Z,21.30
2018-12-25T14:37:23.845Z,12.57
2018-12-25T14:39:52.302Z,19.87
2018-12-25T14:42:20.707Z,24.00
2018-12-25T14:44:49.140Z,22.47
2018-12-25T14:47:20.396Z,10.77
2018-12-25T14:49:48.848Z,23.20
2018-12-25T14:52:17.293Z,27.80
2018-12-25T14:54:45.794Z,25.17
2018-12-25T14:57:14.243Z,35.33
2018-12-25T14:59:42.675Z,22.57
2018-12-25T15:02:11.139Z,23.77
2018-12-25T15:04:39.647Z,22.07
2018-12-25T15:07:08.104Z,21.93
2018-12-25T15:09:36.615Z,19.57
2018-12-25T15:15:00.460Z,23.07
2018-12-25T15:17:28.924Z,19.47
2018-12-25T15:19:57.390Z,18.90
2018-12-25T15:22:25.823Z,23.43
2018-12-25T15:24:54.267Z,19.87
2018-12-25T15:27:22.733Z,21.27
2018-12-25T15:29:51.154Z,20.53
2018-12-25T15:32:19.597Z,23.17
2018-12-25T15:34:48.172Z,21.40
2018-12-25T15:37:16.621Z,20.13
2018-12-25T15:39:45.174Z,23.50
2018-12-25T15:42:13.623Z,22.50
2018-12-25T15:44:42.046Z,24.87
2018-12-25T15:47:10.593Z,26.03
2018-12-25T15:49:39.012Z,15.37
2018-12-25T15:52:07.426Z,26.87
2018-12-25T15:54:35.916Z,20.53
2018-12-25T15:57:05.574Z,21.53
2018-12-25T15:59:33.995Z,20.93
2018-12-25T16:02:02.451Z,20.07
2018-12-25T16:04:30.883Z,20.77
2018-12-25T16:06:59.331Z,20.70
2018-12-25T16:09:27.753Z,20.03
2018-12-25T16:11:56.204Z,17.40
2018-12-25T16:14:24.631Z,19.67
2018-12-25T16:16:53.085Z,18.17
2018-12-25T16:19:21.528Z,20.70
2018-12-25T16:22:09.292Z,22.80
2018-12-25T16:24:37.742Z,18.70
2018-12-25T16:27:06.849Z,17.03
2018-12-25T16:29:35.403Z,21.13
2018-12-25T16:32:03.860Z,18.80
2018-12-25T16:34:32.323Z,14.77
2018-12-25T16:37:00.783Z,21.03
2018-12-25T16:39:29.423Z,16.77
2018-12-25T16:41:57.847Z,21.83
2018-12-25T16:44:26.396Z,16.70
2018-12-25T16:46:54.815Z,17.30
2018-12-25T16:49:23.263Z,16.77
2018-12-25T16:51:51.691Z,19.97
2018-12-25T16:54:20.134Z,19.70
2018-12-25T16:56:48.578Z,23.47
2018-12-25T16:59:17.019Z,17.93
2018-12-25T17:01:45.454Z,17.60
2018-12-25T17:04:13.885Z,22.47
2018-12-25T17:06:54.215Z,19.90
2018-12-25T17:09:22.719Z,16.47
2018-12-25T17:11:51.171Z,18.73
2018-12-25T17:14:19.648Z,16.50
2018-12-25T17:16:48.087Z,17.43
2018-12-25T17:19:16.531Z,17.37
2018-12-25T17:21:44.959Z,18.47
2018-12-25T17:24:13.407Z,22.87
2018-12-25T17:26:41.843Z,19.77
2018-12-25T17:29:10.342Z,19.50
2018-12-25T17:31:38.787Z,26.67
2018-12-25T17:34:07.218Z,29.63
2018-12-25T17:36:35.639Z,21.23
2018-12-25T17:39:06.559Z,16.40
2018-12-25T17:41:34.983Z,27.13
2018-12-25T17:44:03.480Z,19.33
2018-12-25T17:46:31.920Z,26.43
2018-12-25T17:49:00.371Z,18.07
2018-12-25T17:51:31.520Z,28.13
2018-12-25T17:53:59.966Z,20.43
2018-12-25T17:56:28.419Z,21.30
2018-12-25T18:01:51.812Z,21.00
2018-12-25T18:04:20.234Z,20.53
2018-12-25T18:06:48.790Z,22.80
2018-12-25T18:09:17.294Z,16.47
2018-12-25T18:11:45.879Z,21.20
2018-12-25T18:14:14.464Z,17.07
2018-12-25T18:16:42.931Z,17.63
2018-12-25T18:19:11.391Z,18.20
2018-12-25T18:21:39.799Z,21.30
2018-12-25T18:24:08.223Z,16.13
2018-12-25T18:26:36.650Z,16.10
2018-12-25T18:29:07.404Z,16.47
2018-12-25T18:31:35.824Z,13.97
2018-12-25T18:34:23.611Z,20.87
2018-12-25T18:36:52.164Z,19.57
2018-12-25T18:39:40.013Z,19.03
2018-12-25T18:42:08.462Z,24.83
2018-12-25T18:44:36.970Z,25.40
2018-12-25T18:47:05.395Z,20.67
2018-12-25T18:49:33.832Z,23.03
2018-12-25T18:52:02.255Z,19.53
2018-12-25T18:54:30.713Z,18.20
2018-12-25T18:56:59.155Z,19.63
2018-12-25T18:59:27.575Z,20.33
2018-12-25T19:01:56.096Z,19.10
2018-12-25T19:04:24.508Z,23.30
2018-12-25T19:06:52.951Z,16.80
2018-12-25T19:09:21.399Z,25.07
2018-12-25T19:11:49.815Z,19.70
2018-12-25T19:14:18.775Z,18.27
2018-12-25T19:16:47.567Z,15.13
2018-12-25T19:19:35.383Z,19.17
2018-12-25T19:22:04.060Z,20.70
2018-12-25T19:24:36.425Z,21.40
2018-12-25T19:27:03.057Z,24.47
2018-12-25T19:29:31.498Z,21.63
2018-12-25T19:31:59.982Z,19.03
2018-12-25T19:34:28.446Z,15.70
2018-12-25T19:36:56.920Z,22.83
2018-12-25T19:39:25.378Z,23.50
2018-12-25T19:41:53.808Z,21.53
2018-12-25T19:44:22.265Z,20.70
2018-12-25T19:46:50.699Z,18.43
2018-12-25T19:49:19.140Z,23.87
2018-12-25T19:51:47.710Z,16.53
2018-12-25T19:54:16.206Z,22.60
2018-12-25T19:56:45.039Z,19.47
2018-12-25T19:59:13.505Z,19.30
2018-12-25T20:01:41.961Z,22.57
2018-12-25T20:04:13.544Z,21.50
2018-12-25T20:06:57.308Z,23.80
2018-12-25T20:12:58.182Z,16.50
2018-12-25T20:15:53.197Z,20.70
2018-12-25T20:18:33.451Z,17.67
2018-12-25T20:21:23.910Z,22.40
2018-12-25T20:24:19.390Z,19.77
2018-12-25T20:27:02.815Z,20.60
2018-12-25T20:29:43.322Z,18.47
2018-12-25T20:32:14.854Z,21.83
2018-12-25T20:35:02.990Z,18.97
2018-12-25T20:37:58.574Z,18.80
2018-12-25T20:40:53.673Z,23.27
2018-12-25T20:43:50.931Z,19.07
2018-12-25T20:46:42.995Z,25.00
2018-12-25T20:49:17.412Z,23.77
2018-12-25T20:51:57.734Z,21.50
2018-12-25T20:54:31.899Z,23.40
2018-12-25T20:57:03.419Z,22.60
2018-12-25T20:59:40.500Z,23.57
2018-12-25T21:05:39.631Z,9.30
2018-12-25T21:08:16.651Z,12.40
2018-12-25T21:11:06.063Z,24.67
2018-12-25T21:13:54.241Z,31.77
2018-12-25T21:16:43.415Z,23.67
2018-12-25T21:19:47.831Z,22.77
2018-12-25T21:22:30.875Z,23.00
2018-12-25T21:25:36.799Z,27.13
2018-12-25T21:28:04.163Z,23.57
2018-12-25T21:30:32.950Z,24.40
2018-12-25T21:33:01.486Z,28.73
2018-12-25T21:35:30.082Z,23.27
2018-12-25T21:37:58.906Z,33.00
2018-12-25T21:40:27.854Z,24.10
2018-12-25T21:42:56.889Z,22.43
2018-12-25T21:45:25.398Z,35.13
2018-12-25T21:47:54.815Z,23.43
2018-12-25T21:50:23.631Z,29.17
2018-12-25T21:52:52.255Z,26.30
2018-12-25T21:55:20.814Z,28.13
2018-12-25T21:57:50.914Z,26.33
2018-12-25T22:00:19.415Z,21.67
2018-12-25T22:02:48.526Z,27.93
2018-12-25T22:05:17.171Z,26.40
2018-12-25T22:07:45.625Z,26.63
2018-12-25T22:10:14.054Z,24.83
2018-12-25T22:12:42.503Z,33.70
2018-12-25T22:15:10.929Z,32.90
2018-12-25T22:17:39.351Z,37.43
2018-12-25T22:20:16.295Z,23.50
2018-12-25T22:22:44.725Z,26.00
2018-12-25T22:25:13.201Z,31.40
2018-12-25T22:27:41.678Z,29.23
2018-12-25T22:30:10.133Z,34.20
2018-12-25T22:32:38.595Z,30.30
2018-12-25T22:35:07.040Z,34.90
2018-12-25T22:37:35.498Z,29.47
2018-12-25T22:40:05.259Z,29.80
2018-12-25T22:42:33.687Z,32.67
2018-12-25T22:45:02.135Z,36.00
2018-12-25T22:47:30.595Z,23.77
2018-12-25T22:49:59.023Z,29.90
2018-12-25T22:52:27.483Z,30.30
2018-12-25T22:54:56.010Z,27.80
2018-12-25T22:57:24.439Z,37.07
2018-12-25T22:59:52.888Z,35.43
2018-12-25T23:02:21.340Z,28.13
2018-12-25T23:04:49.791Z,43.47
2018-12-25T23:07:18.221Z,28.37
2018-12-25T23:09:46.685Z,33.33
2018-12-25T23:12:15.131Z,31.90
2018-12-25T23:14:43.584Z,35.40
2018-12-25T23:17:12.043Z,32.33
2018-12-25T23:19:40.503Z,34.00
2018-12-25T23:22:08.955Z,32.20
2018-12-25T23:24:37.381Z,19.50
2018-12-25T23:27:05.831Z,28.10
2018-12-25T23:29:34.263Z,29.93
2018-12-25T23:32:02.715Z,26.73
2018-12-25T23:34:31.168Z,32.70
2018-12-25T23:36:59.622Z,29.60
2018-12-25T23:39:28.085Z,39.20
2018-12-25T23:42:15.843Z,30.40
2018-12-25T23:44:44.299Z,41.40
2018-12-25T23:47:12.719Z,49.93
2018-12-25T23:49:41.188Z,31.43
2018-12-25T23:52:09.995Z,41.03
2018-12-25T23:54:58.965Z,42.40
2018-12-25T23:57:27.623Z,37.93
